Details for United Airlines at KORD




Go Back


Latest METAR
Local Time

KORD 241355Z 08009KT 9SM SCT016 OVC100 01/M02 A3016 RMK AO2 T00111022

24/02/2018, 07:58:22

Description
Results
United Airlines Logo
Number of Pilots based at KORD
0 Pilots Based here
Number of United Airlines Flights Departed from KORD
5 Flights Departed
Number of United Airlines Flights Arrived at KORD
5 Flights Arrived
Number of United Airlines Schedules Departing from KORD
1322 Schedules
Number of United Airlines Schedules Arriving at KORD
1372 Schedules
Number of United Airlines Schedules Departing from KORD availible today
494 Schedules Today
Number of United Airlines Schedules Arriving at KORD availible today
490 Schedules Today
Average Landing Rate at KORD
-233 fpm
United Airlines Average Landing Rate at KORD
-329 fpm
Total Fuel Purchased at KORD by United Airlines
23,901.58 kgs / 52,693.42 lbs

Pilots Based at KORD


Pilot ID
Pilot Name
Pilot Rank
No. of Flights
No. of Flying Hours
There are no pilots assigned to this hub!   Will you be the first?
Content